sensor_id;sensor_type;location;lat;lon;timestamp;temperature;humidity
2441;DHT22;1231;53.988;9.470;2022-12-07T00:02:06;3.40;87.90
2441;DHT22;1231;53.988;9.470;2022-12-07T00:04:36;3.40;88.10
2441;DHT22;1231;53.988;9.470;2022-12-07T00:07:07;3.40;88.30
2441;DHT22;1231;53.988;9.470;2022-12-07T00:09:37;3.40;88.40
2441;DHT22;1231;53.988;9.470;2022-12-07T00:12:09;3.40;88.50
2441;DHT22;1231;53.988;9.470;2022-12-07T00:14:39;3.40;88.50
2441;DHT22;1231;53.988;9.470;2022-12-07T00:17:10;3.40;88.50
2441;DHT22;1231;53.988;9.470;2022-12-07T00:19:40;3.30;88.40
2441;DHT22;1231;53.988;9.470;2022-12-07T00:22:11;3.30;88.40
2441;DHT22;1231;53.988;9.470;2022-12-07T00:24:41;3.30;88.40
2441;DHT22;1231;53.988;9.470;2022-12-07T00:27:12;3.30;88.50
2441;DHT22;1231;53.988;9.470;2022-12-07T00:29:42;3.30;88.60
2441;DHT22;1231;53.988;9.470;2022-12-07T00:32:13;3.30;88.80
2441;DHT22;1231;53.988;9.470;2022-12-07T00:34:44;3.30;88.90
2441;DHT22;1231;53.988;9.470;2022-12-07T00:37:15;3.30;89.10
2441;DHT22;1231;53.988;9.470;2022-12-07T00:39:46;3.30;89.30
2441;DHT22;1231;53.988;9.470;2022-12-07T00:42:16;3.40;89.40
2441;DHT22;1231;53.988;9.470;2022-12-07T00:44:47;3.40;89.50
2441;DHT22;1231;53.988;9.470;2022-12-07T00:47:17;3.40;89.70
2441;DHT22;1231;53.988;9.470;2022-12-07T00:49:48;3.50;89.60
2441;DHT22;1231;53.988;9.470;2022-12-07T00:52:18;3.50;89.50
2441;DHT22;1231;53.988;9.470;2022-12-07T00:54:49;3.50;89.40
2441;DHT22;1231;53.988;9.470;2022-12-07T00:57:19;3.50;89.30
2441;DHT22;1231;53.988;9.470;2022-12-07T00:59:50;3.50;89.20
2441;DHT22;1231;53.988;9.470;2022-12-07T01:02:21;3.50;89.20
2441;DHT22;1231;53.988;9.470;2022-12-07T01:04:52;3.50;89.20
2441;DHT22;1231;53.988;9.470;2022-12-07T01:07:23;3.50;89.30
2441;DHT22;1231;53.988;9.470;2022-12-07T01:09:53;3.50;89.40
2441;DHT22;1231;53.988;9.470;2022-12-07T01:12:24;3.50;89.70
2441;DHT22;1231;53.988;9.470;2022-12-07T01:14:54;3.50;90.00
2441;DHT22;1231;53.988;9.470;2022-12-07T01:17:25;3.60;90.20
2441;DHT22;1231;53.988;9.470;2022-12-07T01:19:55;3.60;90.60
2441;DHT22;1231;53.988;9.470;2022-12-07T01:22:26;3.70;90.70
2441;DHT22;1231;53.988;9.470;2022-12-07T01:24:57;3.70;90.80
2441;DHT22;1231;53.988;9.470;2022-12-07T01:27:27;3.80;90.90
2441;DHT22;1231;53.988;9.470;2022-12-07T01:29:58;3.80;91.00
2441;DHT22;1231;53.988;9.470;2022-12-07T01:32:29;3.90;90.90
2441;DHT22;1231;53.988;9.470;2022-12-07T01:34:59;3.90;90.80
2441;DHT22;1231;53.988;9.470;2022-12-07T01:37:37;3.90;90.70
2441;DHT22;1231;53.988;9.470;2022-12-07T01:40:09;3.90;90.70
2441;DHT22;1231;53.988;9.470;2022-12-07T01:42:40;4.00;90.60
2441;DHT22;1231;53.988;9.470;2022-12-07T01:45:39;4.00;90.50
2441;DHT22;1231;53.988;9.470;2022-12-07T01:48:13;4.00;90.50
2441;DHT22;1231;53.988;9.470;2022-12-07T01:50:48;4.00;90.40
2441;DHT22;1231;53.988;9.470;2022-12-07T01:53:20;4.00;90.30
2441;DHT22;1231;53.988;9.470;2022-12-07T01:55:52;3.90;90.20
2441;DHT22;1231;53.988;9.470;2022-12-07T01:58:24;4.00;90.20
2441;DHT22;1231;53.988;9.470;2022-12-07T02:00:55;3.90;90.20
2441;DHT22;1231;53.988;9.470;2022-12-07T02:03:31;3.90;90.10
2441;DHT22;1231;53.988;9.470;2022-12-07T02:06:03;3.90;90.10
2441;DHT22;1231;53.988;9.470;2022-12-07T02:08:35;3.90;90.10
2441;DHT22;1231;53.988;9.470;2022-12-07T02:11:07;3.90;89.90
2441;DHT22;1231;53.988;9.470;2022-12-07T02:13:40;3.90;89.90
2441;DHT22;1231;53.988;9.470;2022-12-07T02:27:38;3.70;89.70
2441;DHT22;1231;53.988;9.470;2022-12-07T02:30:20;3.70;89.80
2441;DHT22;1231;53.988;9.470;2022-12-07T02:32:56;3.70;89.80
2441;DHT22;1231;53.988;9.470;2022-12-07T02:35:32;3.70;89.80
2441;DHT22;1231;53.988;9.470;2022-12-07T02:38:26;3.70;89.90
2441;DHT22;1231;53.988;9.470;2022-12-07T02:41:10;3.60;89.90
2441;DHT22;1231;53.988;9.470;2022-12-07T02:43:46;3.60;89.90
2441;DHT22;1231;53.988;9.470;2022-12-07T02:46:22;3.60;89.80
2441;DHT22;1231;53.988;9.470;2022-12-07T02:48:54;3.60;89.80
2441;DHT22;1231;53.988;9.470;2022-12-07T02:51:25;3.60;89.90
2441;DHT22;1231;53.988;9.470;2022-12-07T02:53:56;3.50;90.00
2441;DHT22;1231;53.988;9.470;2022-12-07T03:13:28;3.40;90.00
2441;DHT22;1231;53.988;9.470;2022-12-07T03:19:01;3.40;90.30
2441;DHT22;1231;53.988;9.470;2022-12-07T03:21:38;3.40;90.10
2441;DHT22;1231;53.988;9.470;2022-12-07T03:24:15;3.40;90.10
2441;DHT22;1231;53.988;9.470;2022-12-07T03:26:51;3.40;90.10
2441;DHT22;1231;53.988;9.470;2022-12-07T03:29:27;3.40;90.00
2441;DHT22;1231;53.988;9.470;2022-12-07T03:32:13;3.30;89.90
2441;DHT22;1231;53.988;9.470;2022-12-07T03:37:33;3.30;89.70
2441;DHT22;1231;53.988;9.470;2022-12-07T03:40:18;3.20;89.80
2441;DHT22;1231;53.988;9.470;2022-12-07T03:42:50;3.20;89.80
2441;DHT22;1231;53.988;9.470;2022-12-07T03:45:26;3.20;89.80
2441;DHT22;1231;53.988;9.470;2022-12-07T03:48:25;3.10;89.70
2441;DHT22;1231;53.988;9.470;2022-12-07T03:53:43;3.10;89.50
2441;DHT22;1231;53.988;9.470;2022-12-07T03:56:15;3.10;89.40
2441;DHT22;1231;53.988;9.470;2022-12-07T03:58:46;3.00;89.40
2441;DHT22;1231;53.988;9.470;2022-12-07T04:01:17;3.00;89.40
2441;DHT22;1231;53.988;9.470;2022-12-07T04:03:48;3.00;89.30
2441;DHT22;1231;53.988;9.470;2022-12-07T04:06:19;3.00;89.20
2441;DHT22;1231;53.988;9.470;2022-12-07T04:08:49;2.90;89.10
2441;DHT22;1231;53.988;9.470;2022-12-07T04:11:20;2.90;89.20
2441;DHT22;1231;53.988;9.470;2022-12-07T04:13:51;2.90;89.20
2441;DHT22;1231;53.988;9.470;2022-12-07T04:16:40;2.90;89.30
2441;DHT22;1231;53.988;9.470;2022-12-07T04:19:11;2.90;89.30
2441;DHT22;1231;53.988;9.470;2022-12-07T04:21:42;2.90;89.30
2441;DHT22;1231;53.988;9.470;2022-12-07T04:24:14;2.80;89.30
2441;DHT22;1231;53.988;9.470;2022-12-07T04:26:45;2.80;89.30
2441;DHT22;1231;53.988;9.470;2022-12-07T04:29:16;2.80;89.30
2441;DHT22;1231;53.988;9.470;2022-12-07T04:31:48;2.80;89.20
2441;DHT22;1231;53.988;9.470;2022-12-07T04:34:19;2.80;89.10
2441;DHT22;1231;53.988;9.470;2022-12-07T04:36:50;2.70;89.10
2441;DHT22;1231;53.988;9.470;2022-12-07T04:41:56;2.70;89.10
2441;DHT22;1231;53.988;9.470;2022-12-07T04:44:28;2.70;89.20
2441;DHT22;1231;53.988;9.470;2022-12-07T04:46:59;2.70;89.30
2441;DHT22;1231;53.988;9.470;2022-12-07T04:49:29;2.70;89.30
2441;DHT22;1231;53.988;9.470;2022-12-07T04:52:00;2.70;89.30
2441;DHT22;1231;53.988;9.470;2022-12-07T04:54:31;2.70;89.30
2441;DHT22;1231;53.988;9.470;2022-12-07T04:57:01;2.70;89.30
2441;DHT22;1231;53.988;9.470;2022-12-07T04:59:32;2.70;89.30
2441;DHT22;1231;53.988;9.470;2022-12-07T05:02:02;2.70;89.20
2441;DHT22;1231;53.988;9.470;2022-12-07T05:04:33;2.70;89.20
2441;DHT22;1231;53.988;9.470;2022-12-07T05:07:04;2.70;89.10
2441;DHT22;1231;53.988;9.470;2022-12-07T05:09:34;2.60;89.10
2441;DHT22;1231;53.988;9.470;2022-12-07T05:12:05;2.60;89.10
2441;DHT22;1231;53.988;9.470;2022-12-07T05:14:35;2.60;89.00
2441;DHT22;1231;53.988;9.470;2022-12-07T05:17:06;2.60;89.00
2441;DHT22;1231;53.988;9.470;2022-12-07T05:19:36;2.60;89.00
2441;DHT22;1231;53.988;9.470;2022-12-07T05:22:07;2.50;88.80
2441;DHT22;1231;53.988;9.470;2022-12-07T05:24:37;2.50;88.80
2441;DHT22;1231;53.988;9.470;2022-12-07T05:27:08;2.50;88.80
2441;DHT22;1231;53.988;9.470;2022-12-07T05:29:38;2.50;88.80
2441;DHT22;1231;53.988;9.470;2022-12-07T05:32:09;2.50;88.80
2441;DHT22;1231;53.988;9.470;2022-12-07T05:34:39;2.50;88.90
2441;DHT22;1231;53.988;9.470;2022-12-07T05:37:10;2.50;88.80
2441;DHT22;1231;53.988;9.470;2022-12-07T05:39:41;2.50;88.80
2441;DHT22;1231;53.988;9.470;2022-12-07T05:42:13;2.50;88.90
2441;DHT22;1231;53.988;9.470;2022-12-07T05:44:45;2.50;88.90
2441;DHT22;1231;53.988;9.470;2022-12-07T05:47:16;2.50;88.90
2441;DHT22;1231;53.988;9.470;2022-12-07T05:49:46;2.50;89.20
2441;DHT22;1231;53.988;9.470;2022-12-07T05:52:18;2.50;89.20
2441;DHT22;1231;53.988;9.470;2022-12-07T05:54:49;2.50;89.40
2441;DHT22;1231;53.988;9.470;2022-12-07T05:57:19;2.50;89.60
2441;DHT22;1231;53.988;9.470;2022-12-07T05:59:50;2.60;89.60
2441;DHT22;1231;53.988;9.470;2022-12-07T06:02:21;2.60;89.40
2441;DHT22;1231;53.988;9.470;2022-12-07T06:04:51;2.60;89.30
2441;DHT22;1231;53.988;9.470;2022-12-07T06:07:22;2.50;89.00
2441;DHT22;1231;53.988;9.470;2022-12-07T06:09:52;2.50;88.80
2441;DHT22;1231;53.988;9.470;2022-12-07T06:12:23;2.40;88.60
2441;DHT22;1231;53.988;9.470;2022-12-07T06:15:06;2.30;88.50
2441;DHT22;1231;53.988;9.470;2022-12-07T06:17:37;2.30;88.40
2441;DHT22;1231;53.988;9.470;2022-12-07T06:20:08;2.20;88.30
2441;DHT22;1231;53.988;9.470;2022-12-07T06:22:38;2.20;88.10
2441;DHT22;1231;53.988;9.470;2022-12-07T06:25:09;2.20;88.20
2441;DHT22;1231;53.988;9.470;2022-12-07T06:27:40;2.20;88.20
2441;DHT22;1231;53.988;9.470;2022-12-07T06:30:10;2.10;88.30
2441;DHT22;1231;53.988;9.470;2022-12-07T06:32:41;2.20;88.40
2441;DHT22;1231;53.988;9.470;2022-12-07T06:35:12;2.20;88.60
2441;DHT22;1231;53.988;9.470;2022-12-07T06:37:42;2.20;88.60
2441;DHT22;1231;53.988;9.470;2022-12-07T06:40:13;2.20;88.70
2441;DHT22;1231;53.988;9.470;2022-12-07T06:42:43;2.20;88.90
2441;DHT22;1231;53.988;9.470;2022-12-07T06:45:14;2.30;89.00
2441;DHT22;1231;53.988;9.470;2022-12-07T06:47:44;2.40;89.20
2441;DHT22;1231;53.988;9.470;2022-12-07T06:50:15;2.40;89.30
2441;DHT22;1231;53.988;9.470;2022-12-07T06:52:46;2.40;89.20
2441;DHT22;1231;53.988;9.470;2022-12-07T06:55:17;2.40;89.00
2441;DHT22;1231;53.988;9.470;2022-12-07T06:57:47;2.40;89.00
2441;DHT22;1231;53.988;9.470;2022-12-07T07:00:18;2.50;89.20
2441;DHT22;1231;53.988;9.470;2022-12-07T07:02:49;2.50;89.40
2441;DHT22;1231;53.988;9.470;2022-12-07T07:05:19;2.60;89.50
2441;DHT22;1231;53.988;9.470;2022-12-07T07:07:52;2.60;89.60
2441;DHT22;1231;53.988;9.470;2022-12-07T07:10:22;2.70;89.60
2441;DHT22;1231;53.988;9.470;2022-12-07T07:12:53;2.70;89.70
2441;DHT22;1231;53.988;9.470;2022-12-07T07:15:24;2.70;89.70
2441;DHT22;1231;53.988;9.470;2022-12-07T07:17:55;2.80;89.80
2441;DHT22;1231;53.988;9.470;2022-12-07T07:20:25;2.80;89.90
2441;DHT22;1231;53.988;9.470;2022-12-07T07:22:56;2.80;89.90
2441;DHT22;1231;53.988;9.470;2022-12-07T07:25:27;2.90;89.80
2441;DHT22;1231;53.988;9.470;2022-12-07T07:27:58;2.90;89.80
2441;DHT22;1231;53.988;9.470;2022-12-07T07:30:28;2.90;89.80
2441;DHT22;1231;53.988;9.470;2022-12-07T07:33:00;3.00;89.90
2441;DHT22;1231;53.988;9.470;2022-12-07T07:35:32;3.00;89.90
2441;DHT22;1231;53.988;9.470;2022-12-07T07:38:03;3.10;89.90
2441;DHT22;1231;53.988;9.470;2022-12-07T07:40:35;3.10;89.90
2441;DHT22;1231;53.988;9.470;2022-12-07T07:43:07;3.10;89.90
2441;DHT22;1231;53.988;9.470;2022-12-07T07:45:37;3.20;89.80
2441;DHT22;1231;53.988;9.470;2022-12-07T07:48:08;3.20;89.80
2441;DHT22;1231;53.988;9.470;2022-12-07T07:50:38;3.30;89.70
2441;DHT22;1231;53.988;9.470;2022-12-07T07:53:09;3.30;89.70
2441;DHT22;1231;53.988;9.470;2022-12-07T07:55:40;3.30;89.60
2441;DHT22;1231;53.988;9.470;2022-12-07T07:58:10;3.30;89.50
2441;DHT22;1231;53.988;9.470;2022-12-07T08:00:41;3.30;89.30
2441;DHT22;1231;53.988;9.470;2022-12-07T08:03:11;3.30;89.30
2441;DHT22;1231;53.988;9.470;2022-12-07T08:05:42;3.40;89.30
2441;DHT22;1231;53.988;9.470;2022-12-07T08:08:12;3.40;89.30
2441;DHT22;1231;53.988;9.470;2022-12-07T08:10:43;3.40;89.20
2441;DHT22;1231;53.988;9.470;2022-12-07T08:13:15;3.40;89.20
2441;DHT22;1231;53.988;9.470;2022-12-07T08:15:47;3.50;89.20
2441;DHT22;1231;53.988;9.470;2022-12-07T08:18:17;3.50;89.20
2441;DHT22;1231;53.988;9.470;2022-12-07T08:20:48;3.60;89.30
2441;DHT22;1231;53.988;9.470;2022-12-07T08:23:19;3.60;89.30
2441;DHT22;1231;53.988;9.470;2022-12-07T08:25:49;3.60;89.30
2441;DHT22;1231;53.988;9.470;2022-12-07T08:28:20;3.70;89.30
2441;DHT22;1231;53.988;9.470;2022-12-07T08:30:50;3.70;89.20
2441;DHT22;1231;53.988;9.470;2022-12-07T08:33:21;3.80;89.20
2441;DHT22;1231;53.988;9.470;2022-12-07T08:35:53;3.90;89.20
2441;DHT22;1231;53.988;9.470;2022-12-07T08:38:23;3.90;89.20
2441;DHT22;1231;53.988;9.470;2022-12-07T08:40:55;3.90;89.20
2441;DHT22;1231;53.988;9.470;2022-12-07T08:43:26;4.00;89.20
2441;DHT22;1231;53.988;9.470;2022-12-07T08:46:12;4.10;89.10
2441;DHT22;1231;53.988;9.470;2022-12-07T08:48:51;4.10;89.00
2441;DHT22;1231;53.988;9.470;2022-12-07T08:51:23;4.20;88.90
2441;DHT22;1231;53.988;9.470;2022-12-07T08:53:55;4.20;88.80
2441;DHT22;1231;53.988;9.470;2022-12-07T08:56:26;4.20;88.70
2441;DHT22;1231;53.988;9.470;2022-12-07T08:58:58;4.30;88.60
2441;DHT22;1231;53.988;9.470;2022-12-07T09:01:28;4.30;88.50
2441;DHT22;1231;53.988;9.470;2022-12-07T09:03:59;4.30;88.60
2441;DHT22;1231;53.988;9.470;2022-12-07T09:06:30;4.30;88.50
2441;DHT22;1231;53.988;9.470;2022-12-07T09:09:01;4.40;88.50
2441;DHT22;1231;53.988;9.470;2022-12-07T09:11:32;4.40;88.50
2441;DHT22;1231;53.988;9.470;2022-12-07T09:14:02;4.50;88.50
2441;DHT22;1231;53.988;9.470;2022-12-07T09:16:33;4.50;88.40
2441;DHT22;1231;53.988;9.470;2022-12-07T09:19:03;4.50;88.30
2441;DHT22;1231;53.988;9.470;2022-12-07T09:21:34;4.60;88.10
2441;DHT22;1231;53.988;9.470;2022-12-07T09:24:05;4.60;88.10
2441;DHT22;1231;53.988;9.470;2022-12-07T09:26:36;4.60;88.00
2441;DHT22;1231;53.988;9.470;2022-12-07T09:29:06;4.70;87.90
2441;DHT22;1231;53.988;9.470;2022-12-07T09:31:37;4.70;87.90
2441;DHT22;1231;53.988;9.470;2022-12-07T09:34:08;4.80;87.80
2441;DHT22;1231;53.988;9.470;2022-12-07T09:36:38;4.80;87.80
2441;DHT22;1231;53.988;9.470;2022-12-07T09:39:09;4.80;87.70
2441;DHT22;1231;53.988;9.470;2022-12-07T09:41:41;4.90;87.70
2441;DHT22;1231;53.988;9.470;2022-12-07T09:44:23;4.90;87.60
2441;DHT22;1231;53.988;9.470;2022-12-07T09:46:55;4.90;87.50
2441;DHT22;1231;53.988;9.470;2022-12-07T09:49:29;5.00;87.30
2441;DHT22;1231;53.988;9.470;2022-12-07T09:52:02;5.10;87.50
2441;DHT22;1231;53.988;9.470;2022-12-07T09:54:44;5.10;87.40
2441;DHT22;1231;53.988;9.470;2022-12-07T09:57:28;5.20;87.30
2441;DHT22;1231;53.988;9.470;2022-12-07T10:00:02;5.20;87.30
2441;DHT22;1231;53.988;9.470;2022-12-07T10:02:37;5.20;87.10
2441;DHT22;1231;53.988;9.470;2022-12-07T10:05:18;5.30;87.10
2441;DHT22;1231;53.988;9.470;2022-12-07T10:07:51;5.30;87.10
2441;DHT22;1231;53.988;9.470;2022-12-07T10:10:44;5.40;86.90
2441;DHT22;1231;53.988;9.470;2022-12-07T10:13:20;5.50;86.80
2441;DHT22;1231;53.988;9.470;2022-12-07T10:15:54;5.50;86.60
2441;DHT22;1231;53.988;9.470;2022-12-07T10:18:29;5.60;86.50
2441;DHT22;1231;53.988;9.470;2022-12-07T10:21:17;5.60;86.30
2441;DHT22;1231;53.988;9.470;2022-12-07T10:29:16;5.80;86.20
2441;DHT22;1231;53.988;9.470;2022-12-07T10:34:44;5.80;86.00
2441;DHT22;1231;53.988;9.470;2022-12-07T10:37:18;5.90;85.90
2441;DHT22;1231;53.988;9.470;2022-12-07T10:39:55;5.90;85.60
2441;DHT22;1231;53.988;9.470;2022-12-07T10:42:29;6.00;85.50
2441;DHT22;1231;53.988;9.470;2022-12-07T10:56:52;6.20;85.20
2441;DHT22;1231;53.988;9.470;2022-12-07T10:59:42;6.20;85.20
2441;DHT22;1231;53.988;9.470;2022-12-07T11:08:02;6.40;84.50
2441;DHT22;1231;53.988;9.470;2022-12-07T11:10:55;6.40;84.40
2441;DHT22;1231;53.988;9.470;2022-12-07T11:21:58;6.50;83.60
2441;DHT22;1231;53.988;9.470;2022-12-07T11:25:14;6.50;83.30
2441;DHT22;1231;53.988;9.470;2022-12-07T11:28:11;6.50;82.70
2441;DHT22;1231;53.988;9.470;2022-12-07T11:33:54;6.60;82.40
2441;DHT22;1231;53.988;9.470;2022-12-07T11:36:47;6.60;82.20
2441;DHT22;1231;53.988;9.470;2022-12-07T11:39:26;6.50;81.80
2441;DHT22;1231;53.988;9.470;2022-12-07T11:42:19;6.60;81.70
2441;DHT22;1231;53.988;9.470;2022-12-07T11:45:10;6.60;81.70
2441;DHT22;1231;53.988;9.470;2022-12-07T11:47:47;6.60;81.80
2441;DHT22;1231;53.988;9.470;2022-12-07T11:50:37;6.70;81.60
2441;DHT22;1231;53.988;9.470;2022-12-07T11:53:38;6.70;80.40
2441;DHT22;1231;53.988;9.470;2022-12-07T11:56:17;6.70;79.40
2441;DHT22;1231;53.988;9.470;2022-12-07T11:59:21;6.70;79.20
2441;DHT22;1231;53.988;9.470;2022-12-07T12:01:58;6.80;79.20
2441;DHT22;1231;53.988;9.470;2022-12-07T12:07:25;6.80;77.20
2441;DHT22;1231;53.988;9.470;2022-12-07T12:09:58;6.80;77.10
2441;DHT22;1231;53.988;9.470;2022-12-07T12:21:35;6.80;75.30
2441;DHT22;1231;53.988;9.470;2022-12-07T12:24:15;6.80;74.90
2441;DHT22;1231;53.988;9.470;2022-12-07T12:26:59;6.80;74.50
2441;DHT22;1231;53.988;9.470;2022-12-07T12:29:34;6.80;73.30
2441;DHT22;1231;53.988;9.470;2022-12-07T12:42:52;6.70;69.80
2441;DHT22;1231;53.988;9.470;2022-12-07T12:45:26;6.70;70.00
2441;DHT22;1231;53.988;9.470;2022-12-07T12:48:01;6.70;70.00
2441;DHT22;1231;53.988;9.470;2022-12-07T12:50:34;6.60;69.50
2441;DHT22;1231;53.988;9.470;2022-12-07T12:53:24;6.60;69.30
2441;DHT22;1231;53.988;9.470;2022-12-07T12:56:19;6.60;69.40
2441;DHT22;1231;53.988;9.470;2022-12-07T12:59:24;6.60;69.00
2441;DHT22;1231;53.988;9.470;2022-12-07T13:04:57;6.50;69.60
2441;DHT22;1231;53.988;9.470;2022-12-07T13:08:17;6.50;69.30
2441;DHT22;1231;53.988;9.470;2022-12-07T13:10:50;6.40;69.10
2441;DHT22;1231;53.988;9.470;2022-12-07T13:20:58;6.10;68.30
2441;DHT22;1231;53.988;9.470;2022-12-07T13:23:52;6.10;68.80
2441;DHT22;1231;53.988;9.470;2022-12-07T13:31:44;6.00;68.00
2441;DHT22;1231;53.988;9.470;2022-12-07T13:34:38;5.90;67.60
2441;DHT22;1231;53.988;9.470;2022-12-07T13:37:24;5.90;67.50
2441;DHT22;1231;53.988;9.470;2022-12-07T13:39:58;5.90;67.90
2441;DHT22;1231;53.988;9.470;2022-12-07T13:42:33;5.90;68.20
2441;DHT22;1231;53.988;9.470;2022-12-07T13:45:23;5.90;67.90
2441;DHT22;1231;53.988;9.470;2022-12-07T13:48:28;5.90;67.80
2441;DHT22;1231;53.988;9.470;2022-12-07T13:51:02;5.80;68.00
2441;DHT22;1231;53.988;9.470;2022-12-07T13:53:33;5.80;68.00
2441;DHT22;1231;53.988;9.470;2022-12-07T13:56:04;5.70;68.60
2441;DHT22;1231;53.988;9.470;2022-12-07T13:58:36;5.70;69.30
2441;DHT22;1231;53.988;9.470;2022-12-07T14:01:07;5.70;69.20
2441;DHT22;1231;53.988;9.470;2022-12-07T14:03:38;5.70;68.90
2441;DHT22;1231;53.988;9.470;2022-12-07T14:06:24;5.70;69.20
2441;DHT22;1231;53.988;9.470;2022-12-07T14:11:50;5.80;68.40
2441;DHT22;1231;53.988;9.470;2022-12-07T14:14:30;5.80;68.30
2441;DHT22;1231;53.988;9.470;2022-12-07T14:17:19;5.80;68.40
2441;DHT22;1231;53.988;9.470;2022-12-07T14:19:57;5.70;68.20
2441;DHT22;1231;53.988;9.470;2022-12-07T14:22:33;5.60;68.50
2441;DHT22;1231;53.988;9.470;2022-12-07T14:27:54;5.50;68.00
2441;DHT22;1231;53.988;9.470;2022-12-07T14:30:29;5.40;68.30
2441;DHT22;1231;53.988;9.470;2022-12-07T14:33:02;5.30;68.30
2441;DHT22;1231;53.988;9.470;2022-12-07T14:35:32;5.20;68.60
2441;DHT22;1231;53.988;9.470;2022-12-07T14:38:03;5.10;68.60
2441;DHT22;1231;53.988;9.470;2022-12-07T14:40:33;5.00;68.80
2441;DHT22;1231;53.988;9.470;2022-12-07T14:43:09;4.90;69.40
2441;DHT22;1231;53.988;9.470;2022-12-07T14:45:40;4.80;69.90
2441;DHT22;1231;53.988;9.470;2022-12-07T14:48:14;4.70;70.40
2441;DHT22;1231;53.988;9.470;2022-12-07T14:50:49;4.60;70.80
2441;DHT22;1231;53.988;9.470;2022-12-07T14:53:25;4.50;71.30
2441;DHT22;1231;53.988;9.470;2022-12-07T14:55:58;4.40;71.60
2441;DHT22;1231;53.988;9.470;2022-12-07T14:58:29;4.20;71.80
2441;DHT22;1231;53.988;9.470;2022-12-07T15:01:00;4.10;72.10
2441;DHT22;1231;53.988;9.470;2022-12-07T15:03:31;4.00;72.60
2441;DHT22;1231;53.988;9.470;2022-12-07T15:06:01;3.90;73.00
2441;DHT22;1231;53.988;9.470;2022-12-07T15:08:34;3.80;73.30
2441;DHT22;1231;53.988;9.470;2022-12-07T15:11:04;3.70;73.80
2441;DHT22;1231;53.988;9.470;2022-12-07T15:13:35;3.60;74.10
2441;DHT22;1231;53.988;9.470;2022-12-07T15:16:24;3.50;74.40
2441;DHT22;1231;53.988;9.470;2022-12-07T15:18:54;3.50;74.80
2441;DHT22;1231;53.988;9.470;2022-12-07T15:21:25;3.40;75.10
2441;DHT22;1231;53.988;9.470;2022-12-07T15:23:56;3.30;75.30
2441;DHT22;1231;53.988;9.470;2022-12-07T15:26:26;3.20;75.70
2441;DHT22;1231;53.988;9.470;2022-12-07T15:28:57;3.10;76.00
2441;DHT22;1231;53.988;9.470;2022-12-07T15:31:27;3.10;76.40
2441;DHT22;1231;53.988;9.470;2022-12-07T15:33:58;3.00;76.60
2441;DHT22;1231;53.988;9.470;2022-12-07T15:36:30;3.00;76.80
2441;DHT22;1231;53.988;9.470;2022-12-07T15:39:02;2.90;77.00
2441;DHT22;1231;53.988;9.470;2022-12-07T15:41:32;2.90;77.30
2441;DHT22;1231;53.988;9.470;2022-12-07T15:44:03;2.80;77.50
2441;DHT22;1231;53.988;9.470;2022-12-07T15:46:52;2.80;77.60
2441;DHT22;1231;53.988;9.470;2022-12-07T15:49:23;2.80;77.80
2441;DHT22;1231;53.988;9.470;2022-12-07T15:51:53;2.70;78.00
2441;DHT22;1231;53.988;9.470;2022-12-07T15:54:28;2.70;78.10
2441;DHT22;1231;53.988;9.470;2022-12-07T15:56:59;2.70;78.30
2441;DHT22;1231;53.988;9.470;2022-12-07T15:59:30;2.60;78.50
2441;DHT22;1231;53.988;9.470;2022-12-07T16:02:00;2.60;78.60
2441;DHT22;1231;53.988;9.470;2022-12-07T16:04:31;2.60;78.60
2441;DHT22;1231;53.988;9.470;2022-12-07T16:07:02;2.60;78.60
2441;DHT22;1231;53.988;9.470;2022-12-07T16:09:32;2.60;78.70
2441;DHT22;1231;53.988;9.470;2022-12-07T16:12:03;2.60;79.00
2441;DHT22;1231;53.988;9.470;2022-12-07T16:14:34;2.60;79.20
2441;DHT22;1231;53.988;9.470;2022-12-07T16:17:05;2.60;79.30
2441;DHT22;1231;53.988;9.470;2022-12-07T16:19:36;2.60;79.30
2441;DHT22;1231;53.988;9.470;2022-12-07T16:22:07;2.60;79.30
2441;DHT22;1231;53.988;9.470;2022-12-07T16:24:37;2.60;79.40
2441;DHT22;1231;53.988;9.470;2022-12-07T16:27:08;2.60;79.40
2441;DHT22;1231;53.988;9.470;2022-12-07T16:29:39;2.60;79.40
2441;DHT22;1231;53.988;9.470;2022-12-07T16:32:09;2.60;79.50
2441;DHT22;1231;53.988;9.470;2022-12-07T16:34:40;2.60;79.50
2441;DHT22;1231;53.988;9.470;2022-12-07T16:37:10;2.50;79.70
2441;DHT22;1231;53.988;9.470;2022-12-07T16:39:41;2.50;79.80
2441;DHT22;1231;53.988;9.470;2022-12-07T16:42:11;2.50;79.90
2441;DHT22;1231;53.988;9.470;2022-12-07T16:44:42;2.50;80.00
2441;DHT22;1231;53.988;9.470;2022-12-07T16:47:12;2.40;80.00
2441;DHT22;1231;53.988;9.470;2022-12-07T16:49:43;2.40;80.10
2441;DHT22;1231;53.988;9.470;2022-12-07T16:52:14;2.40;80.20
2441;DHT22;1231;53.988;9.470;2022-12-07T16:54:44;2.40;80.30
2441;DHT22;1231;53.988;9.470;2022-12-07T16:57:16;2.40;80.40
2441;DHT22;1231;53.988;9.470;2022-12-07T16:59:47;2.40;80.50
2441;DHT22;1231;53.988;9.470;2022-12-07T17:02:18;2.40;80.50
2441;DHT22;1231;53.988;9.470;2022-12-07T17:04:50;2.40;80.70
2441;DHT22;1231;53.988;9.470;2022-12-07T17:07:21;2.40;80.60
2441;DHT22;1231;53.988;9.470;2022-12-07T17:09:52;2.40;80.70
2441;DHT22;1231;53.988;9.470;2022-12-07T17:12:23;2.40;80.80
2441;DHT22;1231;53.988;9.470;2022-12-07T17:14:54;2.40;80.90
2441;DHT22;1231;53.988;9.470;2022-12-07T17:17:58;2.40;80.90
2441;DHT22;1231;53.988;9.470;2022-12-07T17:20:28;2.40;81.00
2441;DHT22;1231;53.988;9.470;2022-12-07T17:22:59;2.40;81.00
2441;DHT22;1231;53.988;9.470;2022-12-07T17:25:29;2.40;81.00
2441;DHT22;1231;53.988;9.470;2022-12-07T17:28:00;2.40;81.10
2441;DHT22;1231;53.988;9.470;2022-12-07T17:30:31;2.40;81.20
2441;DHT22;1231;53.988;9.470;2022-12-07T17:33:01;2.40;81.30
2441;DHT22;1231;53.988;9.470;2022-12-07T17:35:32;2.40;81.30
2441;DHT22;1231;53.988;9.470;2022-12-07T17:38:02;2.40;81.50
2441;DHT22;1231;53.988;9.470;2022-12-07T17:40:33;2.40;81.60
2441;DHT22;1231;53.988;9.470;2022-12-07T17:43:03;2.40;81.60
2441;DHT22;1231;53.988;9.470;2022-12-07T17:45:36;2.40;81.70
2441;DHT22;1231;53.988;9.470;2022-12-07T17:48:07;2.40;81.70
2441;DHT22;1231;53.988;9.470;2022-12-07T17:50:39;2.40;81.70
2441;DHT22;1231;53.988;9.470;2022-12-07T17:53:28;2.40;81.70
2441;DHT22;1231;53.988;9.470;2022-12-07T17:55:59;2.40;81.70
2441;DHT22;1231;53.988;9.470;2022-12-07T17:58:29;2.40;81.80
2441;DHT22;1231;53.988;9.470;2022-12-07T18:01:00;2.50;81.80
2441;DHT22;1231;53.988;9.470;2022-12-07T18:03:30;2.50;81.70
2441;DHT22;1231;53.988;9.470;2022-12-07T18:06:01;2.40;81.80
2441;DHT22;1231;53.988;9.470;2022-12-07T18:08:34;2.40;81.80
2441;DHT22;1231;53.988;9.470;2022-12-07T18:11:06;2.40;81.80
2441;DHT22;1231;53.988;9.470;2022-12-07T18:13:37;2.40;81.80
2441;DHT22;1231;53.988;9.470;2022-12-07T18:16:11;2.40;81.90
2441;DHT22;1231;53.988;9.470;2022-12-07T18:18:43;2.40;81.90
2441;DHT22;1231;53.988;9.470;2022-12-07T18:21:17;2.40;82.00
2441;DHT22;1231;53.988;9.470;2022-12-07T18:23:50;2.40;82.00
2441;DHT22;1231;53.988;9.470;2022-12-07T18:26:23;2.30;82.00
2441;DHT22;1231;53.988;9.470;2022-12-07T18:28:55;2.30;82.00
2441;DHT22;1231;53.988;9.470;2022-12-07T18:31:25;2.30;82.00
2441;DHT22;1231;53.988;9.470;2022-12-07T18:34:00;2.30;82.10
2441;DHT22;1231;53.988;9.470;2022-12-07T18:36:31;2.30;82.10
2441;DHT22;1231;53.988;9.470;2022-12-07T18:39:04;2.30;82.10
2441;DHT22;1231;53.988;9.470;2022-12-07T18:41:34;2.30;82.10
2441;DHT22;1231;53.988;9.470;2022-12-07T18:44:05;2.30;82.10
2441;DHT22;1231;53.988;9.470;2022-12-07T18:46:36;2.20;82.20
2441;DHT22;1231;53.988;9.470;2022-12-07T18:49:10;2.20;82.20
2441;DHT22;1231;53.988;9.470;2022-12-07T18:51:41;2.20;82.20
2441;DHT22;1231;53.988;9.470;2022-12-07T18:54:12;2.20;82.30
2441;DHT22;1231;53.988;9.470;2022-12-07T18:56:42;2.20;82.40
2441;DHT22;1231;53.988;9.470;2022-12-07T18:59:13;2.20;82.40
2441;DHT22;1231;53.988;9.470;2022-12-07T19:02:02;2.20;82.50